GAP211 RPUV-RPVI
Flight info
| Callsign | GAP211 |
|---|---|
| Flight time | 0h 42m |
| Altitude | 28000 |
| Route | BARBA BARBA1S |
| Aircraft | A320/M-SDE3FGHIRWY/LB1 |
Departure
| Time | 2026-04-26 23:58 |
|---|---|
| Airport | Virac Airport (RPUV) |
Arrival
| Time | 2026-04-27 00:40 |
|---|---|
| Airport | Iloilo International Airport (RPVI) |
| Time | Latitude | Longitude | Altitude | Speed | Heading |
|---|---|---|---|---|---|
| 2026-04-26 23:53 | 13.57996 | 124.21270 | 103 ft | 0 kts | 151° |
| 2026-04-26 23:55 | 13.57995 | 124.21270 | 103 ft | 1 kts | 152° |
| 2026-04-26 23:55 | 13.57991 | 124.21267 | 109 ft | 1 kts | 204° |
| 2026-04-26 23:55 | 13.57992 | 124.21261 | 106 ft | 1 kts | 270° |
| 2026-04-26 23:56 | 13.58004 | 124.21252 | 105 ft | 6 kts | 317° |
| 2026-04-26 23:56 | 13.58050 | 124.21214 | 107 ft | 8 kts | 326° |
| 2026-04-26 23:56 | 13.58072 | 124.21183 | 108 ft | 4 kts | 284° |
| 2026-04-26 23:56 | 13.58071 | 124.21163 | 108 ft | 5 kts | 262° |
| 2026-04-26 23:57 | 13.58055 | 124.21130 | 108 ft | 0 kts | 239° |
| 2026-04-26 23:57 | 13.58025 | 124.21077 | 111 ft | 38 kts | 240° |
| 2026-04-26 23:57 | 13.57965 | 124.20965 | 114 ft | 62 kts | 240° |
| 2026-04-26 23:57 | 13.57609 | 124.20326 | 110 ft | 144 kts | 240° |
| 2026-04-26 23:58 | 13.57039 | 124.19329 | 647 ft | 164 kts | 237° |
| 2026-04-26 23:58 | 13.56417 | 124.18307 | 1404 ft | 177 kts | 236° |
| 2026-04-26 23:58 | 13.55808 | 124.17239 | 2211 ft | 166 kts | 238° |
| 2026-04-26 23:58 | 13.55221 | 124.16287 | 3025 ft | 144 kts | 221° |
| 2026-04-26 23:59 | 13.54458 | 124.15695 | 3474 ft | 142 kts | 208° |
| 2026-04-26 23:59 | 13.53572 | 124.15030 | 3626 ft | 168 kts | 213° |
| 2026-04-26 23:59 | 13.52563 | 124.14256 | 3878 ft | 191 kts | 213° |
| 2026-04-26 23:59 | 13.51447 | 124.13401 | 4214 ft | 207 kts | 213° |
| 2026-04-27 00:00 | 13.50254 | 124.12486 | 4537 ft | 222 kts | 214° |
| 2026-04-27 00:00 | 13.48956 | 124.11492 | 4854 ft | 243 kts | 214° |
| 2026-04-27 00:00 | 13.47554 | 124.10414 | 5315 ft | 260 kts | 214° |
| 2026-04-27 00:00 | 13.46059 | 124.09265 | 5817 ft | 277 kts | 214° |
| 2026-04-27 00:01 | 13.44478 | 124.08052 | 6483 ft | 286 kts | 214° |
| 2026-04-27 00:01 | 13.42921 | 124.06854 | 7225 ft | 290 kts | 214° |
| 2026-04-27 00:01 | 13.41295 | 124.05604 | 8030 ft | 293 kts | 214° |
| 2026-04-27 00:01 | 13.39657 | 124.04346 | 8812 ft | 296 kts | 214° |
| 2026-04-27 00:02 | 13.37995 | 124.03074 | 9598 ft | 299 kts | 215° |
| 2026-04-27 00:02 | 13.36319 | 124.01796 | 10326 ft | 302 kts | 214° |
| 2026-04-27 00:02 | 13.34621 | 124.00503 | 11027 ft | 305 kts | 214° |
| 2026-04-27 00:02 | 13.32909 | 123.99198 | 11730 ft | 308 kts | 214° |
| 2026-04-27 00:03 | 13.31175 | 123.97878 | 12427 ft | 311 kts | 214° |
| 2026-04-27 00:03 | 13.30021 | 123.96999 | 12885 ft | 313 kts | 214° |
| 2026-04-27 00:03 | 13.28695 | 123.96020 | 13367 ft | 316 kts | 213° |
| 2026-04-27 00:04 | 13.26905 | 123.94683 | 14024 ft | 319 kts | 214° |
| 2026-04-27 00:04 | 13.25120 | 123.93311 | 14607 ft | 322 kts | 215° |
| 2026-04-27 00:04 | 13.23324 | 123.91916 | 15196 ft | 325 kts | 215° |
| 2026-04-27 00:04 | 13.21505 | 123.90505 | 15772 ft | 329 kts | 215° |
| 2026-04-27 00:05 | 13.19668 | 123.89089 | 16344 ft | 332 kts | 215° |
| 2026-04-27 00:05 | 13.17808 | 123.87665 | 16905 ft | 335 kts | 215° |
| 2026-04-27 00:05 | 13.15908 | 123.86216 | 17472 ft | 338 kts | 215° |
| 2026-04-27 00:05 | 13.14011 | 123.84769 | 18040 ft | 341 kts | 216° |
| 2026-04-27 00:06 | 13.12104 | 123.83313 | 18545 ft | 343 kts | 216° |
| 2026-04-27 00:06 | 13.10179 | 123.81848 | 19032 ft | 346 kts | 216° |
| 2026-04-27 00:06 | 13.08245 | 123.80375 | 19526 ft | 348 kts | 216° |
| 2026-04-27 00:06 | 13.06300 | 123.78893 | 20034 ft | 349 kts | 217° |
| 2026-04-27 00:07 | 13.04338 | 123.77397 | 20520 ft | 351 kts | 217° |
| 2026-04-27 00:07 | 13.02373 | 123.75899 | 21021 ft | 354 kts | 217° |
| 2026-04-27 00:07 | 13.00391 | 123.74386 | 21490 ft | 356 kts | 217° |
| 2026-04-27 00:07 | 12.98403 | 123.72871 | 21976 ft | 358 kts | 217° |
| 2026-04-27 00:08 | 12.96401 | 123.71349 | 22465 ft | 360 kts | 217° |
| 2026-04-27 00:08 | 12.94377 | 123.69812 | 22855 ft | 362 kts | 217° |
| 2026-04-27 00:08 | 12.92357 | 123.68277 | 22939 ft | 362 kts | 217° |
| 2026-04-27 00:08 | 12.90334 | 123.66740 | 22952 ft | 362 kts | 217° |
| 2026-04-27 00:09 | 12.88312 | 123.65205 | 22950 ft | 362 kts | 217° |
| 2026-04-27 00:09 | 12.86290 | 123.63672 | 22953 ft | 362 kts | 217° |
| 2026-04-27 00:09 | 12.84267 | 123.62134 | 22953 ft | 362 kts | 217° |
| 2026-04-27 00:09 | 12.82249 | 123.60598 | 22948 ft | 362 kts | 217° |
| 2026-04-27 00:10 | 12.80223 | 123.59055 | 22949 ft | 362 kts | 217° |
| 2026-04-27 00:10 | 12.78204 | 123.57518 | 22949 ft | 362 kts | 217° |
| 2026-04-27 00:10 | 12.76180 | 123.55981 | 22944 ft | 362 kts | 217° |
| 2026-04-27 00:10 | 12.74149 | 123.54442 | 22950 ft | 362 kts | 217° |
| 2026-04-27 00:11 | 12.72123 | 123.52906 | 22948 ft | 362 kts | 217° |
| 2026-04-27 00:11 | 12.70096 | 123.51369 | 22953 ft | 363 kts | 217° |
| 2026-04-27 00:11 | 12.68068 | 123.49831 | 22952 ft | 363 kts | 217° |
| 2026-04-27 00:11 | 12.66039 | 123.48292 | 22956 ft | 363 kts | 217° |
| 2026-04-27 00:12 | 12.64001 | 123.46744 | 22945 ft | 371 kts | 217° |
| 2026-04-27 00:12 | 12.61881 | 123.45133 | 22944 ft | 388 kts | 217° |
| 2026-04-27 00:12 | 12.59667 | 123.43453 | 22947 ft | 404 kts | 217° |
| 2026-04-27 00:12 | 12.57345 | 123.41693 | 22947 ft | 418 kts | 217° |
| 2026-04-27 00:13 | 12.54963 | 123.39886 | 22948 ft | 432 kts | 217° |
| 2026-04-27 00:13 | 12.52515 | 123.38028 | 22956 ft | 443 kts | 217° |
| 2026-04-27 00:13 | 12.50017 | 123.36134 | 22942 ft | 452 kts | 217° |
| 2026-04-27 00:13 | 12.47475 | 123.34212 | 22947 ft | 454 kts | 217° |
| 2026-04-27 00:14 | 12.44937 | 123.32294 | 22948 ft | 454 kts | 217° |
| 2026-04-27 00:14 | 12.42394 | 123.30373 | 22947 ft | 454 kts | 217° |
| 2026-04-27 00:14 | 12.39850 | 123.28449 | 22947 ft | 455 kts | 217° |
| 2026-04-27 00:14 | 12.37314 | 123.26526 | 22946 ft | 455 kts | 217° |
| 2026-04-27 00:15 | 12.34771 | 123.24598 | 22942 ft | 454 kts | 217° |
| 2026-04-27 00:15 | 12.32236 | 123.22679 | 22943 ft | 454 kts | 217° |
| 2026-04-27 00:15 | 12.29688 | 123.20752 | 22950 ft | 455 kts | 217° |
| 2026-04-27 00:15 | 12.27144 | 123.18830 | 22950 ft | 455 kts | 217° |
| 2026-04-27 00:16 | 12.24602 | 123.16911 | 22948 ft | 455 kts | 217° |
| 2026-04-27 00:16 | 12.22063 | 123.14995 | 22948 ft | 455 kts | 217° |
| 2026-04-27 00:16 | 12.19519 | 123.13076 | 22957 ft | 455 kts | 217° |
| 2026-04-27 00:16 | 12.16963 | 123.11147 | 22957 ft | 455 kts | 217° |
| 2026-04-27 00:17 | 12.14424 | 123.09231 | 22955 ft | 455 kts | 217° |
| 2026-04-27 00:17 | 12.11888 | 123.07315 | 22943 ft | 455 kts | 217° |
| 2026-04-27 00:17 | 12.09331 | 123.05384 | 22948 ft | 454 kts | 217° |
| 2026-04-27 00:17 | 12.06808 | 123.03480 | 22710 ft | 449 kts | 216° |
| 2026-04-27 00:18 | 12.04297 | 123.01589 | 22462 ft | 448 kts | 216° |
| 2026-04-27 00:18 | 12.01797 | 122.99704 | 22205 ft | 447 kts | 216° |
| 2026-04-27 00:18 | 11.99302 | 122.97822 | 21957 ft | 445 kts | 216° |
| 2026-04-27 00:18 | 11.96811 | 122.95942 | 21708 ft | 444 kts | 216° |
| 2026-04-27 00:19 | 11.94302 | 122.94048 | 21458 ft | 443 kts | 216° |
| 2026-04-27 00:19 | 11.91835 | 122.92189 | 21212 ft | 441 kts | 216° |
| 2026-04-27 00:19 | 11.89365 | 122.90327 | 20977 ft | 440 kts | 216° |
| 2026-04-27 00:19 | 11.86908 | 122.88476 | 20731 ft | 439 kts | 216° |
| 2026-04-27 00:20 | 11.84477 | 122.86645 | 20504 ft | 437 kts | 216° |
| 2026-04-27 00:20 | 11.82033 | 122.84808 | 20272 ft | 436 kts | 216° |
| 2026-04-27 00:20 | 11.79588 | 122.82970 | 20038 ft | 435 kts | 216° |
| 2026-04-27 00:20 | 11.77151 | 122.81142 | 19804 ft | 434 kts | 216° |
| 2026-04-27 00:21 | 11.74731 | 122.79323 | 19576 ft | 433 kts | 216° |
| 2026-04-27 00:21 | 11.72304 | 122.77497 | 19349 ft | 432 kts | 216° |
| 2026-04-27 00:21 | 11.69898 | 122.75687 | 19126 ft | 431 kts | 216° |
| 2026-04-27 00:21 | 11.67477 | 122.73870 | 18899 ft | 429 kts | 216° |
| 2026-04-27 00:22 | 11.65081 | 122.72070 | 18677 ft | 428 kts | 216° |
| 2026-04-27 00:22 | 11.62684 | 122.70267 | 18461 ft | 427 kts | 215° |
| 2026-04-27 00:22 | 11.60296 | 122.68471 | 18236 ft | 426 kts | 215° |
| 2026-04-27 00:22 | 11.57920 | 122.66684 | 17986 ft | 425 kts | 216° |
| 2026-04-27 00:23 | 11.55545 | 122.64900 | 17732 ft | 423 kts | 215° |
| 2026-04-27 00:23 | 11.53180 | 122.63123 | 17483 ft | 421 kts | 215° |
| 2026-04-27 00:23 | 11.50831 | 122.61362 | 17230 ft | 419 kts | 215° |
| 2026-04-27 00:23 | 11.48485 | 122.59606 | 16987 ft | 418 kts | 215° |
| 2026-04-27 00:24 | 11.46146 | 122.57852 | 16739 ft | 416 kts | 215° |
| 2026-04-27 00:24 | 11.43813 | 122.56101 | 16493 ft | 415 kts | 215° |
| 2026-04-27 00:24 | 11.41495 | 122.54362 | 16246 ft | 413 kts | 215° |
| 2026-04-27 00:24 | 11.39188 | 122.52632 | 16011 ft | 411 kts | 215° |
| 2026-04-27 00:25 | 11.36884 | 122.50905 | 15767 ft | 410 kts | 215° |
| 2026-04-27 00:25 | 11.34595 | 122.49192 | 15543 ft | 409 kts | 215° |
| 2026-04-27 00:25 | 11.33050 | 122.48038 | 15384 ft | 408 kts | 215° |
| 2026-04-27 00:25 | 11.30770 | 122.46330 | 15147 ft | 406 kts | 215° |
| 2026-04-27 00:26 | 11.28497 | 122.44625 | 14917 ft | 405 kts | 215° |
| 2026-04-27 00:26 | 11.26227 | 122.42924 | 14686 ft | 404 kts | 215° |
| 2026-04-27 00:26 | 11.23965 | 122.41229 | 14455 ft | 403 kts | 215° |
| 2026-04-27 00:26 | 11.21715 | 122.39543 | 14237 ft | 402 kts | 215° |
| 2026-04-27 00:27 | 11.19461 | 122.37855 | 14006 ft | 401 kts | 215° |
| 2026-04-27 00:27 | 11.17214 | 122.36173 | 13742 ft | 396 kts | 215° |
| 2026-04-27 00:27 | 11.15037 | 122.34546 | 13578 ft | 382 kts | 214° |
| 2026-04-27 00:27 | 11.12940 | 122.32976 | 13458 ft | 367 kts | 214° |
| 2026-04-27 00:28 | 11.10936 | 122.31473 | 13318 ft | 345 kts | 214° |
| 2026-04-27 00:28 | 11.09068 | 122.30071 | 13082 ft | 325 kts | 213° |
| 2026-04-27 00:28 | 11.07116 | 122.29037 | 12567 ft | 311 kts | 194° |
| 2026-04-27 00:28 | 11.05008 | 122.28717 | 11872 ft | 305 kts | 175° |
| 2026-04-27 00:29 | 11.02953 | 122.29139 | 11169 ft | 300 kts | 155° |
| 2026-04-27 00:29 | 11.01175 | 122.30194 | 10495 ft | 294 kts | 137° |
| 2026-04-27 00:29 | 10.99871 | 122.31733 | 10327 ft | 289 kts | 120° |
| 2026-04-27 00:29 | 10.99075 | 122.33597 | 10260 ft | 287 kts | 103° |
| 2026-04-27 00:30 | 10.98872 | 122.35611 | 10127 ft | 286 kts | 86° |
| 2026-04-27 00:30 | 10.99281 | 122.37569 | 9641 ft | 283 kts | 68° |
| 2026-04-27 00:30 | 11.00293 | 122.39294 | 9216 ft | 285 kts | 51° |
| 2026-04-27 00:30 | 11.01766 | 122.40664 | 8864 ft | 283 kts | 40° |
| 2026-04-27 00:31 | 11.03286 | 122.41895 | 8471 ft | 282 kts | 40° |
| 2026-04-27 00:31 | 11.04813 | 122.43139 | 8076 ft | 280 kts | 40° |
| 2026-04-27 00:31 | 11.06346 | 122.44394 | 7698 ft | 278 kts | 40° |
| 2026-04-27 00:31 | 11.07848 | 122.45624 | 7301 ft | 276 kts | 40° |
| 2026-04-27 00:32 | 11.09338 | 122.46845 | 6899 ft | 275 kts | 40° |
| 2026-04-27 00:32 | 11.10823 | 122.48060 | 6513 ft | 273 kts | 40° |
| 2026-04-27 00:32 | 11.12300 | 122.49267 | 6098 ft | 271 kts | 40° |
| 2026-04-27 00:32 | 11.13766 | 122.50464 | 5679 ft | 270 kts | 40° |
| 2026-04-27 00:33 | 11.15019 | 122.51849 | 5246 ft | 265 kts | 62° |
| 2026-04-27 00:33 | 11.15547 | 122.53621 | 4886 ft | 262 kts | 87° |
| 2026-04-27 00:33 | 11.15271 | 122.55428 | 4459 ft | 261 kts | 110° |
| 2026-04-27 00:33 | 11.14614 | 122.57151 | 4098 ft | 256 kts | 111° |
| 2026-04-27 00:34 | 11.13690 | 122.58631 | 3953 ft | 244 kts | 136° |
| 2026-04-27 00:34 | 11.12227 | 122.59453 | 3644 ft | 244 kts | 165° |
| 2026-04-27 00:34 | 11.10542 | 122.59428 | 3264 ft | 247 kts | 195° |
| 2026-04-27 00:34 | 11.08916 | 122.58836 | 2853 ft | 248 kts | 198° |
| 2026-04-27 00:35 | 11.07293 | 122.58227 | 2516 ft | 246 kts | 198° |
| 2026-04-27 00:35 | 11.05721 | 122.57640 | 2403 ft | 236 kts | 198° |
| 2026-04-27 00:35 | 11.04211 | 122.57077 | 2285 ft | 228 kts | 198° |
| 2026-04-27 00:35 | 11.02734 | 122.56529 | 2157 ft | 223 kts | 198° |
| 2026-04-27 00:36 | 11.01295 | 122.55995 | 2047 ft | 218 kts | 198° |
| 2026-04-27 00:36 | 10.99856 | 122.55464 | 2004 ft | 216 kts | 198° |
| 2026-04-27 00:36 | 10.98438 | 122.54939 | 2006 ft | 219 kts | 199° |
| 2026-04-27 00:36 | 10.97026 | 122.54417 | 2003 ft | 217 kts | 199° |
| 2026-04-27 00:37 | 10.95591 | 122.53886 | 2015 ft | 217 kts | 199° |
| 2026-04-27 00:37 | 10.94166 | 122.53358 | 2028 ft | 218 kts | 198° |
| 2026-04-27 00:37 | 10.92802 | 122.52852 | 1987 ft | 198 kts | 199° |
| 2026-04-27 00:37 | 10.91531 | 122.52381 | 1696 ft | 192 kts | 198° |
| 2026-04-27 00:38 | 10.90301 | 122.51926 | 1421 ft | 184 kts | 199° |
| 2026-04-27 00:38 | 10.89161 | 122.51504 | 1220 ft | 166 kts | 199° |
| 2026-04-27 00:38 | 10.88105 | 122.51119 | 1000 ft | 160 kts | 197° |
| 2026-04-27 00:38 | 10.87062 | 122.50732 | 776 ft | 157 kts | 199° |
| 2026-04-27 00:39 | 10.86027 | 122.50344 | 558 ft | 158 kts | 200° |
| 2026-04-27 00:39 | 10.85002 | 122.49959 | 324 ft | 159 kts | 199° |
| 2026-04-27 00:39 | 10.83957 | 122.49572 | 155 ft | 159 kts | 198° |
| 2026-04-27 00:39 | 10.83024 | 122.49231 | 141 ft | 111 kts | 200° |
| 2026-04-27 00:40 | 10.82513 | 122.49030 | 142 ft | 50 kts | 197° |
| 2026-04-27 00:40 | 10.82320 | 122.48962 | 143 ft | 7 kts | 194° |
| 2026-04-27 00:40 | 10.82312 | 122.48972 | 143 ft | 1 kts | 112° |
| 2026-04-27 00:40 | 10.82323 | 122.48979 | 143 ft | 5 kts | 25° |
| 2026-04-27 00:41 | 10.82405 | 122.49004 | 143 ft | 18 kts | 13° |
| 2026-04-27 00:41 | 10.82542 | 122.49051 | 142 ft | 22 kts | 21° |
| 2026-04-27 00:41 | 10.82696 | 122.49111 | 140 ft | 25 kts | 20° |
| 2026-04-27 00:41 | 10.82859 | 122.49173 | 141 ft | 26 kts | 20° |
| 2026-04-27 00:42 | 10.83033 | 122.49235 | 138 ft | 26 kts | 20° |
| 2026-04-27 00:42 | 10.83080 | 122.49341 | 141 ft | 19 kts | 110° |
| 2026-04-27 00:42 | 10.83034 | 122.49472 | 140 ft | 17 kts | 99° |
| 2026-04-27 00:42 | 10.83103 | 122.49552 | 140 ft | 15 kts | 18° |
| 2026-04-27 00:43 | 10.83122 | 122.49559 | 140 ft | 2 kts | 19° |
| 2026-04-27 00:43 | 10.83136 | 122.49564 | 139 ft | 2 kts | 19° |
| 2026-04-27 00:43 | 10.83158 | 122.49572 | 141 ft | 4 kts | 19° |
| 2026-04-27 00:43 | 10.83183 | 122.49583 | 140 ft | 3 kts | 38° |
| 2026-04-27 00:44 | 10.83186 | 122.49599 | 143 ft | 2 kts | 85° |
| 2026-04-27 00:44 | 10.83184 | 122.49611 | 141 ft | 1 kts | 101° |
| 2026-04-27 00:44 | 10.83183 | 122.49613 | 138 ft | 0 kts | 112° |
| 2026-04-27 00:44 | 10.83175 | 122.49632 | 140 ft | 3 kts | 111° |
| 2026-04-27 00:45 | 10.83168 | 122.49652 | 137 ft | 3 kts | 109° |
| 2026-04-27 00:45 | 10.83163 | 122.49667 | 141 ft | 1 kts | 109° |